Erwinville, LA

3:43 AM CDT on September 21, 2014 (GMT -0500)
Baton Rouge Metro-Ryan | Change Station
CLOSE
Current Station
Airport
Location: Baton Rouge,
Elevation: 69 ft
Nearby Weather Stations

Elev 69 ft 30.54 °N, 91.15 °W | Updated 50 minutes ago

Clear
Clear
71 °F
Feels Like 71 °F
N
5
Wind Variable Wind from NNE

Today
High -- | Low -- °F
--% Chance of Precip.
Yesterday
High -- | Low -- °F
Precip. -- in
6:53 AM 7:03 PM
Waning Crescent, 8% visible
Pressure 29.99 in
Visibility 7.0 miles
Clouds Clear
Dew Point 69 °F
Humidity 93%
Rainfall 0.00 in
Snow Depth Not available.
UV 0 out of 12
Pollen 10.40 out of 12
Air Quality Not available.
Flu Activity Not available.
METAR KBTR 210753Z AUTO 03004KT 7SM CLR 22/21 A2999 RMK AO2 SLP154 T02170206 TSNO

More Conditions Fewer Conditions

Pressure 29.99 in
Visibility 7.0 miles
Clouds Clear
Dew Point 69 °F
Humidity 93%
Rainfall 0.00 in
Snow Depth Not available.
UV 0 out of 12
Pollen 10.40 out of 12
Air Quality Not available.
Flu Activity Not available.
METAR KBTR 210753Z AUTO 03004KT 7SM CLR 22/21 A2999 RMK AO2 SLP154 T02170206 TSNO

More Conditions Fewer Conditions

10-Day Weather Forecast

Almanac

Astronomy

Sep. 21, 2014 Rise Set
Actual Time 6:53 AM CDT 7:03 PM CDT
Civil Twilight 6:29 AM CDT 7:27 PM CDT
Nautical Twilight 6:01 AM CDT 7:55 PM CDT
Astronomical Twilight 5:32 AM CDT 8:23 PM CDT
Moon 4:35 AM CDT 5:33 PM CDT
Length of Visible Light 12h 58m
Length of Day
12h 10m
Tomorrow will be 1m 50s shorter.
Waning Crescent, 8% of the Moon is Illuminated
Today
Waning Crescent
Sep 24
New
Oct 1
First Quarter
Oct 8
Full
Oct 15
Last Quarter

Today's Extremes

State Highs State Lows

Community

WunderPhotos

Upload Photos

1,755,100 photos uploaded!

Nearby

Snow Depth

Station Depth Elevation
No new snow has been reported.

Earthquake Activity

City Distance Mag. Time & Date
No recent earthquake activity has been reported nearby.
Minimum magnitude displayed is 2.5.

Coastal Water Temperatures

Place Temperature
No Stations Reporting

Nearby Weather Stations